< < Back
Terminal Aerodrome Forecast


Current Version              Previous Versions:   1  2  3  4  5  6  7  8  9  

Terminal Aerodrome Forecast

122
FTUS44 KBMX 242300
TAFBHM
TAF
KBHM 242328Z 2500/2524 31005KT P6SM SCT040
     FM251100 VRB03KT P6SM SCT250
     FM251300 24003KT P6SM SCT040=

Latest METAR

656
SAUS70 KWBC 250300 RRH
MTRBHM
METAR KBHM 250253Z 00000KT 10SM CLR 24/19 A3001 RMK AO2 SLP154 T02440189
51015


USA.gov is the U.S. government's official web portal to all federal, state and local government web resources and services.